Terminal Aerodrome Forecast
Issued by NWS Denver/Boulder, CO

Home | Current Version | Previous Version | Text Only | Print | Product List | Glossary On
Versions: 1 2 3 4 5 6 7 8 9 10 11 12 13 14 15 16 17 18 19 20 21 22 23 24 25 26 27 28 29 30 31 32 33 34 35 36 37 38 39 40 41 42 43 44 45 46 47 48 49 50
000
FTUS45 KBOU 300537
TAFDEN
TAF
KDEN 300537Z 3006/0112 05007KT P6SM VCSH SCT040 BKN060
     FM300700 12009KT P6SM SCT060 BKN080
     FM300900 20008KT P6SM SCT080 BKN120
     FM301700 26007KT P6SM FEW140 SCT200
     FM302200 30009KT P6SM SCT100 BKN140
     FM010100 35011KT P6SM SCT070 BKN100
     FM010600 21009KT P6SM SCT100 BKN150=

USA.gov is the U.S. government's official web portal to all federal, state and local government web resources and services.